createdAt,value
2019-02-15T00:01:08.177Z,1.10
2019-02-15T00:03:34.719Z,1.02
2019-02-15T00:06:01.422Z,1.05
2019-02-15T00:08:28.039Z,0.98
2019-02-15T00:10:54.527Z,0.97
2019-02-15T00:13:22.129Z,0.94
2019-02-15T00:15:48.615Z,0.92
2019-02-15T00:18:42.054Z,0.89
2019-02-15T00:21:19.923Z,0.90
2019-02-15T00:23:46.374Z,0.98
2019-02-15T00:26:13.102Z,1.05
2019-02-15T00:28:39.778Z,1.03
2019-02-15T00:31:08.177Z,0.97
2019-02-15T00:33:34.938Z,0.96
2019-02-15T00:36:01.491Z,1.04
2019-02-15T00:38:28.040Z,1.13
2019-02-15T00:40:54.582Z,1.20
2019-02-15T00:43:22.537Z,1.12
2019-02-15T00:46:00.819Z,0.97
2019-02-15T00:48:27.401Z,0.93
2019-02-15T00:51:03.425Z,0.82
2019-02-15T00:53:40.144Z,0.74
2019-02-15T00:56:23.640Z,0.77
2019-02-15T00:59:09.840Z,0.81
2019-02-15T01:01:51.752Z,0.78
2019-02-15T01:04:28.274Z,0.72
2019-02-15T01:07:20.299Z,0.80
2019-02-15T01:09:51.864Z,1.04
2019-02-15T01:12:44.312Z,1.12
2019-02-15T01:15:10.875Z,1.11
2019-02-15T01:17:37.376Z,0.81
2019-02-15T01:20:04.418Z,0.53
2019-02-15T01:22:30.980Z,0.60
2019-02-15T01:24:58.790Z,0.65
2019-02-15T01:27:47.629Z,0.60
2019-02-15T01:30:31.149Z,0.50
2019-02-15T01:33:17.359Z,0.42
2019-02-15T01:36:13.328Z,0.40
2019-02-15T01:38:58.022Z,0.38
2019-02-15T01:41:30.492Z,0.37
2019-02-15T01:44:07.899Z,0.48
2019-02-15T01:46:53.166Z,0.46
2019-02-15T01:49:19.730Z,0.44
2019-02-15T01:51:46.501Z,0.39
2019-02-15T01:54:13.453Z,0.37
2019-02-15T01:56:40.009Z,0.36
2019-02-15T01:59:06.529Z,0.28
2019-02-15T02:01:33.037Z,0.20
2019-02-15T02:03:59.522Z,0.05
2019-02-15T02:06:26.064Z,-0.03
2019-02-15T02:08:52.558Z,0.02
2019-02-15T02:11:19.045Z,0.13
2019-02-15T02:13:49.767Z,0.24
2019-02-15T02:16:14.067Z,0.16
2019-02-15T02:18:40.534Z,0.03
2019-02-15T02:21:07.073Z,-0.07
2019-02-15T02:23:33.578Z,-0.14
2019-02-15T02:26:00.046Z,-0.27
2019-02-15T02:28:26.551Z,-0.39
2019-02-15T02:30:53.028Z,-0.39
2019-02-15T02:33:21.649Z,-0.24
2019-02-15T02:35:48.161Z,-0.04
2019-02-15T02:38:14.690Z,-0.06
2019-02-15T02:40:41.161Z,-0.16
2019-02-15T02:43:07.699Z,-0.24
2019-02-15T02:45:34.261Z,-0.27
2019-02-15T02:48:00.776Z,-0.32
2019-02-15T02:50:27.406Z,-0.35
2019-02-15T02:52:54.063Z,-0.22
2019-02-15T02:55:20.905Z,-0.05
2019-02-15T02:57:47.707Z,-0.17
2019-02-15T03:00:14.250Z,-0.22
2019-02-15T03:02:40.712Z,-0.20
2019-02-15T03:05:07.354Z,-0.10
2019-02-15T03:07:33.912Z,0.09
2019-02-15T03:10:00.818Z,0.18
2019-02-15T03:12:27.284Z,0.12
2019-02-15T03:14:53.832Z,0.06
2019-02-15T03:17:20.310Z,0.25
2019-02-15T03:19:47.093Z,0.23
2019-02-15T03:22:13.593Z,0.25
2019-02-15T03:24:40.128Z,0.17
2019-02-15T03:27:06.774Z,0.11
2019-02-15T03:29:33.286Z,-0.05
2019-02-15T03:32:00.029Z,-0.24
2019-02-15T03:34:27.581Z,-0.38
2019-02-15T03:37:06.435Z,-0.44
2019-02-15T03:39:45.151Z,-0.47
2019-02-15T03:42:13.094Z,-0.49
2019-02-15T03:44:39.624Z,-0.41
2019-02-15T03:47:06.173Z,-0.22
2019-02-15T03:49:32.663Z,-0.30
2019-02-15T03:51:59.414Z,-0.09
2019-02-15T03:54:25.899Z,0.04
2019-02-15T03:56:52.460Z,0.01
2019-02-15T03:59:19.207Z,-0.05
2019-02-15T04:01:45.713Z,-0.03
2019-02-15T04:04:12.637Z,0.04
2019-02-15T04:06:39.173Z,0.08
2019-02-15T04:09:05.774Z,0.09
2019-02-15T04:11:32.544Z,0.13
2019-02-15T04:13:59.035Z,0.06
2019-02-15T04:16:25.633Z,0.05
2019-02-15T04:18:52.116Z,0.05
2019-02-15T04:21:18.673Z,0.13
2019-02-15T04:23:45.229Z,0.17
2019-02-15T04:26:11.793Z,0.21
2019-02-15T04:28:38.338Z,0.20
2019-02-15T04:31:04.844Z,0.28
2019-02-15T04:33:31.389Z,0.39
2019-02-15T04:35:57.931Z,0.30
2019-02-15T04:38:25.405Z,0.12
2019-02-15T04:40:52.392Z,-0.04
2019-02-15T04:43:19.270Z,0.01
2019-02-15T04:45:45.767Z,0.10
2019-02-15T04:48:12.717Z,0.11
2019-02-15T04:50:39.191Z,-0.10
2019-02-15T04:53:05.704Z,-0.17
2019-02-15T04:55:32.453Z,0.03
2019-02-15T04:57:58.946Z,0.16
2019-02-15T05:00:25.520Z,0.21
2019-02-15T05:02:52.041Z,0.23
2019-02-15T05:05:18.532Z,0.11
2019-02-15T05:07:44.980Z,0.00
2019-02-15T05:10:11.484Z,-0.15
2019-02-15T05:12:37.972Z,-0.30
2019-02-15T05:15:04.573Z,-0.45
2019-02-15T05:17:31.020Z,-0.50
2019-02-15T05:19:57.502Z,-0.55
2019-02-15T05:22:23.989Z,-0.59
2019-02-15T05:24:50.514Z,-0.62
2019-02-15T05:27:16.995Z,-0.61
2019-02-15T05:29:43.445Z,-0.62
2019-02-15T05:32:09.967Z,-0.61
2019-02-15T05:34:36.561Z,-0.54
2019-02-15T05:37:03.135Z,-0.40
2019-02-15T05:39:29.646Z,-0.25
2019-02-15T05:41:56.575Z,-0.14
2019-02-15T05:44:23.092Z,-0.04
2019-02-15T05:46:49.959Z,-0.01
2019-02-15T05:49:16.394Z,0.04
2019-02-15T05:51:42.898Z,0.04
2019-02-15T05:54:09.430Z,0.07
2019-02-15T05:56:35.981Z,-0.05
2019-02-15T05:59:02.435Z,-0.20
2019-02-15T06:01:29.531Z,-0.14
2019-02-15T06:03:56.046Z,0.03
2019-02-15T06:06:22.549Z,0.23
2019-02-15T06:08:50.341Z,0.31
2019-02-15T06:11:16.832Z,0.20
2019-02-15T06:13:43.645Z,0.11
2019-02-15T06:16:10.106Z,-0.08
2019-02-15T06:18:36.623Z,-0.25
2019-02-15T06:21:03.135Z,-0.38
2019-02-15T06:23:29.670Z,-0.44
2019-02-15T06:25:56.150Z,-0.42
2019-02-15T06:28:22.703Z,-0.34
2019-02-15T06:30:49.188Z,-0.30
2019-02-15T06:33:15.965Z,-0.23
2019-02-15T06:35:42.512Z,-0.15
2019-02-15T06:38:09.221Z,-0.22
2019-02-15T06:40:36.088Z,-0.29
2019-02-15T06:43:03.119Z,-0.37
2019-02-15T06:45:29.705Z,-0.35
2019-02-15T06:47:56.246Z,-0.39
2019-02-15T06:50:22.935Z,-0.51
2019-02-15T06:52:49.642Z,-0.66
2019-02-15T06:55:16.163Z,-0.62
2019-02-15T06:57:42.800Z,-0.53
2019-02-15T07:00:42.041Z,-0.49
2019-02-15T07:03:31.623Z,-0.58
2019-02-15T07:05:58.543Z,-0.71
2019-02-15T07:08:25.071Z,-0.71
2019-02-15T07:10:52.203Z,-0.70
2019-02-15T07:13:20.860Z,-0.60
2019-02-15T07:15:47.538Z,-0.45
2019-02-15T07:18:14.284Z,-0.36
2019-02-15T07:20:41.017Z,-0.20
2019-02-15T07:23:07.649Z,-0.07
2019-02-15T07:25:34.190Z,0.15
2019-02-15T07:28:00.904Z,0.21
2019-02-15T07:30:27.855Z,0.18
2019-02-15T07:32:54.459Z,0.16
2019-02-15T07:35:21.273Z,0.21
2019-02-15T07:37:48.011Z,0.25
2019-02-15T07:40:14.593Z,0.33
2019-02-15T07:42:41.148Z,0.45
2019-02-15T07:45:08.245Z,0.59
2019-02-15T07:47:35.377Z,0.78
2019-02-15T07:50:02.020Z,1.04
2019-02-15T07:52:35.735Z,1.27
2019-02-15T07:55:03.046Z,1.42
2019-02-15T07:57:30.740Z,1.50
2019-02-15T07:59:57.987Z,1.58
2019-02-15T08:02:29.000Z,1.60
2019-02-15T08:04:56.877Z,1.67
2019-02-15T08:07:23.547Z,1.80
2019-02-15T08:09:50.100Z,1.97
2019-02-15T08:12:16.872Z,2.17
2019-02-15T08:14:43.442Z,2.47
2019-02-15T08:17:10.001Z,2.82
2019-02-15T08:19:36.573Z,3.22
2019-02-15T08:22:03.662Z,3.54
2019-02-15T08:24:30.416Z,4.02
2019-02-15T08:26:57.338Z,4.57
2019-02-15T08:29:24.691Z,5.10
2019-02-15T08:31:53.525Z,5.61
2019-02-15T08:34:20.497Z,6.05
2019-02-15T08:36:47.066Z,6.51
2019-02-15T08:39:14.038Z,7.02
2019-02-15T08:41:41.101Z,7.41
2019-02-15T08:44:07.853Z,7.77
2019-02-15T08:46:34.449Z,8.21
2019-02-15T08:49:01.471Z,8.58
2019-02-15T08:51:29.157Z,8.83
2019-02-15T08:53:55.809Z,9.07
2019-02-15T08:56:22.485Z,9.37
2019-02-15T08:58:49.357Z,9.44
2019-02-15T09:01:16.006Z,9.55
2019-02-15T09:03:42.773Z,9.63
2019-02-15T09:06:09.958Z,9.70
2019-02-15T09:08:37.636Z,9.97
2019-02-15T09:11:04.412Z,9.86
2019-02-15T09:13:31.379Z,9.66
2019-02-15T09:15:58.981Z,10.06
2019-02-15T09:18:25.517Z,10.30
2019-02-15T09:20:52.798Z,10.37
2019-02-15T09:23:19.389Z,10.69
2019-02-15T09:25:46.099Z,11.22
2019-02-15T09:28:26.551Z,11.48
2019-02-15T09:30:54.224Z,11.43
2019-02-15T09:33:20.857Z,11.54
2019-02-15T09:35:47.414Z,11.82
2019-02-15T09:38:14.006Z,11.98
2019-02-15T09:40:40.594Z,12.28
2019-02-15T09:43:07.197Z,12.24
2019-02-15T09:45:33.787Z,12.70
2019-02-15T09:48:00.776Z,12.74
2019-02-15T09:50:27.569Z,12.34
2019-02-15T09:52:54.370Z,12.59
2019-02-15T09:55:21.091Z,12.88
2019-02-15T09:57:48.076Z,13.13
2019-02-15T10:00:18.397Z,13.54
2019-02-15T10:02:45.047Z,13.36
2019-02-15T10:05:12.135Z,13.67
2019-02-15T10:07:40.975Z,13.65
2019-02-15T10:10:07.691Z,13.26
2019-02-15T10:12:34.277Z,13.48
2019-02-15T10:15:01.004Z,13.85
2019-02-15T10:17:27.522Z,14.02
2019-02-15T10:19:54.232Z,14.47
2019-02-15T10:22:20.825Z,14.42
2019-02-15T10:24:47.457Z,14.49
2019-02-15T10:27:14.312Z,14.42
2019-02-15T10:29:40.891Z,14.79
2019-02-15T10:32:07.507Z,15.00
2019-02-15T10:34:34.157Z,15.16
2019-02-15T10:37:00.662Z,14.91
2019-02-15T10:39:27.227Z,15.01
2019-02-15T10:41:53.841Z,15.17
2019-02-15T10:44:22.521Z,15.29
2019-02-15T10:46:49.066Z,15.51
2019-02-15T10:49:15.617Z,15.45
2019-02-15T10:51:42.817Z,15.21
2019-02-15T10:54:09.367Z,15.27
2019-02-15T10:56:35.899Z,15.48
2019-02-15T10:59:02.654Z,15.10
2019-02-15T11:01:29.279Z,15.47
2019-02-15T11:03:56.012Z,15.26
2019-02-15T11:06:22.784Z,15.04
2019-02-15T11:08:49.414Z,15.38
2019-02-15T11:11:16.453Z,15.48
2019-02-15T11:13:43.234Z,15.26
2019-02-15T11:16:09.797Z,15.61
2019-02-15T11:18:36.467Z,15.59
2019-02-15T11:21:12.251Z,15.69
2019-02-15T11:23:42.176Z,15.59
2019-02-15T11:26:08.799Z,15.45
2019-02-15T11:28:35.423Z,15.50
2019-02-15T11:31:02.436Z,15.64
2019-02-15T11:33:29.651Z,15.74
2019-02-15T11:35:56.207Z,15.74
2019-02-15T11:38:22.850Z,15.85
2019-02-15T11:40:49.370Z,15.85
2019-02-15T11:43:15.918Z,15.92
2019-02-15T11:45:42.421Z,16.13
2019-02-15T11:48:08.953Z,15.67
2019-02-15T11:50:35.480Z,15.75
2019-02-15T11:53:02.275Z,15.77
2019-02-15T11:55:30.961Z,15.77
2019-02-15T11:57:57.567Z,15.80
2019-02-15T12:00:30.762Z,16.08
2019-02-15T12:02:59.246Z,16.08
2019-02-15T12:05:25.771Z,16.16
2019-02-15T12:07:52.306Z,16.21
2019-02-15T12:10:18.905Z,16.50
2019-02-15T12:12:45.434Z,16.57
2019-02-15T12:15:12.073Z,16.42
2019-02-15T12:17:38.604Z,16.11
2019-02-15T12:20:30.229Z,16.33
2019-02-15T12:22:56.762Z,16.24
2019-02-15T12:25:23.295Z,15.95
2019-02-15T12:27:51.865Z,16.12
2019-02-15T12:30:18.493Z,16.23
2019-02-15T12:32:45.035Z,16.35
2019-02-15T12:35:11.864Z,16.51
2019-02-15T12:37:38.616Z,16.33
2019-02-15T12:40:05.385Z,16.33
2019-02-15T12:42:31.889Z,16.52
2019-02-15T12:44:58.596Z,16.17
2019-02-15T12:47:25.085Z,16.28
2019-02-15T12:49:51.614Z,16.70
2019-02-15T12:52:21.630Z,16.56
2019-02-15T12:54:48.196Z,16.41
2019-02-15T12:57:42.932Z,16.42
2019-02-15T13:00:11.275Z,16.41
2019-02-15T13:02:38.120Z,16.08
2019-02-15T13:05:05.142Z,16.08
2019-02-15T13:07:31.794Z,16.24
2019-02-15T13:09:58.389Z,16.22
2019-02-15T13:12:24.863Z,16.55
2019-02-15T13:14:51.411Z,16.55
2019-02-15T13:17:24.454Z,16.34
2019-02-15T13:19:46.635Z,15.98
2019-02-15T13:22:13.905Z,15.75
2019-02-15T13:24:40.520Z,15.75
2019-02-15T13:27:07.385Z,15.70
2019-02-15T13:29:33.936Z,15.90
2019-02-15T13:32:00.730Z,15.90
2019-02-15T13:34:27.263Z,15.32
2019-02-15T13:36:53.820Z,15.32
2019-02-15T13:39:20.321Z,15.33
2019-02-15T13:41:46.891Z,15.48
2019-02-15T13:44:13.615Z,15.14
2019-02-15T13:46:40.406Z,15.12
2019-02-15T13:49:06.929Z,14.93
2019-02-15T13:51:33.477Z,14.84
2019-02-15T13:54:00.122Z,14.77
2019-02-15T13:56:26.642Z,14.61
2019-02-15T13:58:53.166Z,14.39
2019-02-15T14:01:19.868Z,14.43
2019-02-15T14:03:46.612Z,14.21
2019-02-15T14:06:13.476Z,13.94
2019-02-15T14:08:40.428Z,13.93
2019-02-15T14:11:07.116Z,13.99
2019-02-15T14:13:33.663Z,13.83
2019-02-15T14:16:00.213Z,13.85
2019-02-15T14:18:27.071Z,13.63
2019-02-15T14:20:59.806Z,13.66
2019-02-15T14:23:30.073Z,13.56
2019-02-15T14:26:09.017Z,13.36
2019-02-15T14:29:02.683Z,13.34
2019-02-15T14:31:29.500Z,13.26
2019-02-15T14:33:56.804Z,13.17
2019-02-15T14:36:23.943Z,13.13
2019-02-15T14:38:50.518Z,13.02
2019-02-15T14:41:17.174Z,13.00
2019-02-15T14:43:43.885Z,12.98
2019-02-15T14:46:10.623Z,12.80
2019-02-15T14:48:37.242Z,12.78
2019-02-15T14:51:03.796Z,12.72
2019-02-15T14:53:30.382Z,12.71
2019-02-15T14:55:57.064Z,12.55
2019-02-15T14:58:24.017Z,12.49
2019-02-15T15:00:50.711Z,12.42
2019-02-15T15:03:17.596Z,12.35
2019-02-15T15:05:44.197Z,12.21
2019-02-15T15:08:14.924Z,12.17
2019-02-15T15:10:42.392Z,12.10
2019-02-15T15:13:09.146Z,12.05
2019-02-15T15:15:36.323Z,12.02
2019-02-15T15:18:13.234Z,11.86
2019-02-15T15:20:35.662Z,11.83
2019-02-15T15:23:02.551Z,11.79
2019-02-15T15:25:31.207Z,11.68
2019-02-15T15:27:58.502Z,11.61
2019-02-15T15:30:25.109Z,11.56
2019-02-15T15:32:51.627Z,11.49
2019-02-15T15:35:19.365Z,11.39
2019-02-15T15:37:46.373Z,11.33
2019-02-15T15:40:12.980Z,11.20
2019-02-15T15:42:39.702Z,11.10
2019-02-15T15:45:07.474Z,10.99
2019-02-15T15:47:34.494Z,10.86
2019-02-15T15:50:02.059Z,10.73
2019-02-15T15:52:28.965Z,10.60
2019-02-15T15:54:56.573Z,10.50
2019-02-15T15:57:29.446Z,10.37
2019-02-15T16:00:04.896Z,10.27
2019-02-15T16:02:37.623Z,10.15
2019-02-15T16:05:08.334Z,9.99
2019-02-15T16:07:35.108Z,9.84
2019-02-15T16:10:01.955Z,9.71
2019-02-15T16:12:32.702Z,9.58
2019-02-15T16:15:04.222Z,9.41
2019-02-15T16:17:33.447Z,9.25
2019-02-15T16:20:05.935Z,9.07
2019-02-15T16:22:36.231Z,8.84
2019-02-15T16:25:08.562Z,8.65
2019-02-15T16:27:49.401Z,8.48
2019-02-15T16:30:21.506Z,8.32
2019-02-15T16:32:57.208Z,8.14
2019-02-15T16:35:26.577Z,7.94
2019-02-15T16:38:02.788Z,7.82
2019-02-15T16:40:33.208Z,7.76
2019-02-15T16:43:05.474Z,7.53
2019-02-15T16:45:32.624Z,7.43
2019-02-15T16:47:59.649Z,7.33
2019-02-15T16:50:26.178Z,7.15
2019-02-15T16:52:55.669Z,7.06
2019-02-15T16:55:23.246Z,6.96
2019-02-15T16:57:49.788Z,6.90
2019-02-15T17:00:17.831Z,7.00
2019-02-15T17:02:45.439Z,6.98
2019-02-15T17:05:12.570Z,6.90
2019-02-15T17:07:43.442Z,6.79
2019-02-15T17:10:10.560Z,6.74
2019-02-15T17:12:37.182Z,6.70
2019-02-15T17:15:03.893Z,6.71
2019-02-15T17:17:30.815Z,6.77
2019-02-15T17:19:57.663Z,6.64
2019-02-15T17:22:25.003Z,6.51
2019-02-15T17:24:52.230Z,6.49
2019-02-15T17:27:25.539Z,6.35
2019-02-15T17:29:52.877Z,6.34
2019-02-15T17:32:21.064Z,6.32
2019-02-15T17:34:49.157Z,6.34
2019-02-15T17:37:17.417Z,6.27
2019-02-15T17:39:46.890Z,6.14
2019-02-15T17:42:14.748Z,6.05
2019-02-15T17:44:45.909Z,5.87
2019-02-15T17:47:17.012Z,5.85
2019-02-15T17:49:43.886Z,5.92
2019-02-15T17:52:13.075Z,6.00
2019-02-15T17:54:40.473Z,6.04
2019-02-15T17:57:09.077Z,6.00
2019-02-15T17:59:35.750Z,6.02
2019-02-15T18:02:02.607Z,5.88
2019-02-15T18:04:29.269Z,5.85
2019-02-15T18:06:57.103Z,5.92
2019-02-15T18:09:24.507Z,5.88
2019-02-15T18:11:52.593Z,5.80
2019-02-15T18:14:19.930Z,5.68
2019-02-15T18:16:49.507Z,5.42
2019-02-15T18:19:16.866Z,5.31
2019-02-15T18:21:44.081Z,5.35
2019-02-15T18:24:11.973Z,5.38
2019-02-15T18:26:38.637Z,5.48
2019-02-15T18:29:05.520Z,5.49
2019-02-15T18:31:32.117Z,5.52
2019-02-15T18:33:58.890Z,5.54
2019-02-15T18:36:26.752Z,5.69
2019-02-15T18:38:53.610Z,5.78
2019-02-15T18:41:20.270Z,5.68
2019-02-15T18:43:48.038Z,5.55
2019-02-15T18:46:14.727Z,5.38
2019-02-15T18:48:41.376Z,5.33
2019-02-15T18:51:09.617Z,5.48
2019-02-15T18:53:36.088Z,5.62
2019-02-15T18:56:02.997Z,5.68
2019-02-15T18:58:30.875Z,5.66
2019-02-15T19:00:58.015Z,5.34
2019-02-15T19:03:25.387Z,5.00
2019-02-15T19:05:52.036Z,4.69
2019-02-15T19:08:19.075Z,4.44
2019-02-15T19:10:49.536Z,4.34
2019-02-15T19:13:17.455Z,4.34
2019-02-15T19:15:44.320Z,4.38
2019-02-15T19:18:11.514Z,4.46
2019-02-15T19:20:38.447Z,4.59
2019-02-15T19:23:05.225Z,4.74
2019-02-15T19:25:38.194Z,4.83
2019-02-15T19:28:04.797Z,4.81
2019-02-15T19:30:31.678Z,4.82
2019-02-15T19:32:58.433Z,4.85
2019-02-15T19:35:26.294Z,4.73
2019-02-15T19:37:52.859Z,4.66
2019-02-15T19:40:19.607Z,4.63
2019-02-15T19:42:48.065Z,4.57
2019-02-15T19:45:43.135Z,4.49
2019-02-15T19:48:10.202Z,4.35
2019-02-15T19:50:37.000Z,4.16
2019-02-15T19:53:06.285Z,3.99
2019-02-15T19:55:33.250Z,3.86
2019-02-15T19:57:59.939Z,3.78
2019-02-15T20:00:26.790Z,3.93
2019-02-15T20:03:01.084Z,4.00
2019-02-15T20:05:27.764Z,4.12
2019-02-15T20:07:56.451Z,4.29
2019-02-15T20:10:23.545Z,4.25
2019-02-15T20:12:50.685Z,4.45
2019-02-15T20:15:17.365Z,4.85
2019-02-15T20:17:43.927Z,5.13
2019-02-15T20:20:12.752Z,5.17
2019-02-15T20:22:39.354Z,4.98
2019-02-15T20:25:07.881Z,4.76
2019-02-15T20:27:34.699Z,4.67
2019-02-15T20:30:03.418Z,4.54
2019-02-15T20:32:30.258Z,4.48
2019-02-15T20:34:56.821Z,4.36
2019-02-15T20:37:23.660Z,4.29
2019-02-15T20:39:50.148Z,4.18
2019-02-15T20:42:17.342Z,4.07
2019-02-15T20:44:44.295Z,4.00
2019-02-15T20:47:11.170Z,3.87
2019-02-15T20:49:38.581Z,3.79
2019-02-15T20:52:05.290Z,3.75
2019-02-15T20:54:32.237Z,3.72
2019-02-15T20:57:01.576Z,3.75
2019-02-15T20:59:35.560Z,3.71
2019-02-15T21:02:04.316Z,3.64
2019-02-15T21:04:30.876Z,3.64
2019-02-15T21:07:00.128Z,3.67
2019-02-15T21:09:31.049Z,3.70
2019-02-15T21:11:59.026Z,3.70
2019-02-15T21:14:27.020Z,3.77
2019-02-15T21:16:53.992Z,3.84
2019-02-15T21:19:21.075Z,3.84
2019-02-15T21:21:47.746Z,3.82
2019-02-15T21:24:22.677Z,3.80
2019-02-15T21:26:51.673Z,3.66
2019-02-15T21:29:20.581Z,3.59
2019-02-15T21:31:48.286Z,3.67
2019-02-15T21:34:14.871Z,3.64
2019-02-15T21:36:41.402Z,3.71
2019-02-15T21:39:08.074Z,3.65
2019-02-15T21:41:34.577Z,3.68
2019-02-15T21:44:01.052Z,3.58
2019-02-15T21:46:27.548Z,3.78
2019-02-15T21:48:54.059Z,3.90
2019-02-15T21:51:20.585Z,3.73
2019-02-15T21:53:47.044Z,3.70
2019-02-15T21:56:13.595Z,3.53
2019-02-15T21:58:40.238Z,3.35
2019-02-15T22:01:06.817Z,3.19
2019-02-15T22:03:33.584Z,3.03
2019-02-15T22:06:00.046Z,2.88
2019-02-15T22:08:26.582Z,2.75
2019-02-15T22:10:53.066Z,2.63
2019-02-15T22:13:19.596Z,2.52
2019-02-15T22:15:46.130Z,2.49
2019-02-15T22:18:12.607Z,2.43
2019-02-15T22:20:39.139Z,2.38
2019-02-15T22:23:05.635Z,2.34
2019-02-15T22:25:32.171Z,2.26
2019-02-15T22:27:58.990Z,2.40
2019-02-15T22:30:25.557Z,2.57
2019-02-15T22:32:52.940Z,2.97
2019-02-15T22:35:19.420Z,3.11
2019-02-15T22:37:45.932Z,3.02
2019-02-15T22:40:32.476Z,3.14
2019-02-15T22:43:01.842Z,3.16
2019-02-15T22:45:30.042Z,3.01
2019-02-15T22:47:56.513Z,2.89
2019-02-15T22:50:23.023Z,2.90
2019-02-15T22:52:49.612Z,3.19
2019-02-15T22:55:16.086Z,3.36
2019-02-15T22:57:42.550Z,3.27
2019-02-15T23:00:15.373Z,3.15
2019-02-15T23:02:41.850Z,2.97
2019-02-15T23:05:08.334Z,2.76
2019-02-15T23:07:34.792Z,2.58
2019-02-15T23:10:01.261Z,2.44
2019-02-15T23:12:27.772Z,2.36
2019-02-15T23:14:54.236Z,2.27
2019-02-15T23:17:20.988Z,2.23
2019-02-15T23:19:47.771Z,2.27
2019-02-15T23:22:14.240Z,2.18
2019-02-15T23:24:40.747Z,2.08
2019-02-15T23:27:07.208Z,2.02
2019-02-15T23:29:33.729Z,1.92
2019-02-15T23:32:00.223Z,1.82
2019-02-15T23:34:27.030Z,1.85
2019-02-15T23:36:53.545Z,1.82
2019-02-15T23:39:20.285Z,1.83
2019-02-15T23:41:46.857Z,1.92
2019-02-15T23:44:13.361Z,2.34
2019-02-15T23:46:39.823Z,2.91
2019-02-15T23:49:06.326Z,3.54
2019-02-15T23:51:33.183Z,3.92
2019-02-15T23:53:59.682Z,4.36
2019-02-15T23:56:26.167Z,4.73
2019-02-15T23:58:53.151Z,4.71
